Time;durP1;ratioP1;P1;durP2;ratioP2;P2;SDS_P1;SDS_P2;PMS_P1;PMS_P2;Temp;Humidity;BMP_temperature;BMP_pressure;BME280_temperature;BME280_humidity;BME280_pressure;Samples;Min_cycle;Max_cycle;Signal;HPM_P1;HPM_P2
2023/09/09 00:02:22;;;;;;;7.30;6.55;;;;;;;;;;5019539;28;20050;-83
2023/09/09 00:04:49;;;;;;;10.77;7.15;;;;;;;;;;5021143;28;20060;-83
2023/09/09 00:07:15;;;;;;;8.95;6.57;;;;;;;;;;5020047;28;20042;-81
2023/09/09 00:09:42;;;;;;;10.45;7.25;;;;;;;;;;5021465;28;20041;-83
2023/09/09 00:12:08;;;;;;;9.07;7.82;;;;;;;;;;5019936;28;20153;-83
2023/09/09 00:14:37;;;;;;;9.48;7.68;;;;;;;;;;5019807;28;20521;-82
2023/09/09 00:17:04;;;;;;;10.43;7.22;;;;;;;;;;5019200;28;20491;-81
2023/09/09 00:19:34;;;;;;;9.88;7.13;;;;;;;;;;5021002;28;20058;-83
2023/09/09 00:22:00;;;;;;;10.40;7.72;;;;;;;;;;5018844;28;20403;-81
2023/09/09 00:24:27;;;;;;;10.57;6.88;;;;;;;;;;5019799;28;20450;-84
2023/09/09 00:26:55;;;;;;;11.52;7.00;;;;;;;;;;5020309;28;20050;-81
2023/09/09 00:29:21;;;;;;;10.23;7.30;;;;;;;;;;5020334;28;20054;-82
2023/09/09 00:31:50;;;;;;;9.98;7.35;;;;;;;;;;5019810;28;20050;-82
2023/09/09 00:34:17;;;;;;;10.50;7.22;;;;;;;;;;5020256;28;20053;-81
2023/09/09 00:36:43;;;;;;;9.40;7.40;;;;;;;;;;5020564;28;20068;-82
2023/09/09 00:39:10;;;;;;;8.90;7.53;;;;;;;;;;5020323;28;20041;-82
2023/09/09 00:41:36;;;;;;;10.73;8.13;;;;;;;;;;5020696;28;20053;-82
2023/09/09 00:44:04;;;;;;;15.00;7.68;;;;;;;;;;5019949;28;20478;-81
2023/09/09 00:46:31;;;;;;;11.13;7.40;;;;;;;;;;5020236;28;20046;-81
2023/09/09 00:49:00;;;;;;;12.07;8.05;;;;;;;;;;5020983;28;20060;-83
2023/09/09 00:51:27;;;;;;;9.73;7.32;;;;;;;;;;5019346;28;20061;-82
2023/09/09 00:53:53;;;;;;;9.73;7.45;;;;;;;;;;5020199;28;20046;-82
2023/09/09 00:56:20;;;;;;;10.02;7.28;;;;;;;;;;5020350;28;20052;-81
2023/09/09 00:58:46;;;;;;;11.77;7.20;;;;;;;;;;5020545;28;20046;-81
2023/09/09 01:01:13;;;;;;;9.52;7.40;;;;;;;;;;5019727;28;20050;-81
2023/09/09 01:03:40;;;;;;;13.43;7.38;;;;;;;;;;5020301;28;20052;-81
2023/09/09 01:06:08;;;;;;;8.88;7.45;;;;;;;;;;5020304;28;20085;-81
2023/09/09 01:08:34;;;;;;;9.90;7.60;;;;;;;;;;5019766;28;20110;-81
2023/09/09 01:11:01;;;;;;;9.93;7.20;;;;;;;;;;5020578;28;20061;-81
2023/09/09 01:13:28;;;;;;;9.80;7.65;;;;;;;;;;5021041;28;20064;-81
2023/09/09 01:15:55;;;;;;;8.23;7.22;;;;;;;;;;5021309;28;20064;-82
2023/09/09 01:18:22;;;;;;;13.18;7.72;;;;;;;;;;5020548;28;20046;-83
2023/09/09 01:20:53;;;;;;;12.45;7.40;;;;;;;;;;5020267;28;20041;-82
2023/09/09 01:23:21;;;;;;;14.25;8.10;;;;;;;;;;5021348;28;20050;-81
2023/09/09 01:25:47;;;;;;;9.82;7.68;;;;;;;;;;5021329;28;20049;-81
2023/09/09 01:28:14;;;;;;;10.77;7.22;;;;;;;;;;5021001;28;20046;-81
2023/09/09 01:30:42;;;;;;;12.10;7.25;;;;;;;;;;5020714;28;20052;-82
2023/09/09 01:33:08;;;;;;;12.27;7.60;;;;;;;;;;5019189;28;20050;-83
2023/09/09 01:35:35;;;;;;;8.95;7.10;;;;;;;;;;5020105;28;20045;-81
2023/09/09 01:38:01;;;;;;;9.18;6.82;;;;;;;;;;5019986;28;20052;-82
2023/09/09 01:40:29;;;;;;;10.40;7.55;;;;;;;;;;5020299;28;20053;-81
2023/09/09 01:42:56;;;;;;;9.45;7.40;;;;;;;;;;5017706;28;20054;-82
2023/09/09 01:45:22;;;;;;;10.23;7.30;;;;;;;;;;5017532;28;20053;-82
2023/09/09 01:47:49;;;;;;;8.38;6.93;;;;;;;;;;5016571;28;20054;-81
2023/09/09 01:50:16;;;;;;;13.93;7.93;;;;;;;;;;5016318;28;20056;-82
2023/09/09 01:52:42;;;;;;;10.25;7.22;;;;;;;;;;5015283;28;20056;-82
2023/09/09 01:55:09;;;;;;;9.55;7.18;;;;;;;;;;5015336;28;20045;-83
2023/09/09 01:57:37;;;;;;;10.95;7.03;;;;;;;;;;5014878;28;20512;-82
2023/09/09 02:00:10;;;;;;;8.73;7.05;;;;;;;;;;5016369;28;20042;-82
2023/09/09 02:02:36;;;;;;;10.60;6.97;;;;;;;;;;5019435;28;20196;-81
2023/09/09 02:05:03;;;;;;;9.00;7.05;;;;;;;;;;5021912;28;20050;-84
2023/09/09 02:07:29;;;;;;;10.27;7.53;;;;;;;;;;5024284;28;20232;-82
2023/09/09 02:09:56;;;;;;;10.00;7.03;;;;;;;;;;5023850;28;20046;-82
2023/09/09 02:12:22;;;;;;;9.82;6.95;;;;;;;;;;5027144;28;20052;-83
2023/09/09 02:14:50;;;;;;;8.68;6.28;;;;;;;;;;5030213;28;20076;-86
2023/09/09 02:17:17;;;;;;;9.35;6.97;;;;;;;;;;5029317;28;20141;-84
2023/09/09 02:19:44;;;;;;;11.25;6.95;;;;;;;;;;5020223;28;20060;-81
2023/09/09 02:22:11;;;;;;;10.85;7.18;;;;;;;;;;5018938;28;20112;-82
2023/09/09 02:24:37;;;;;;;9.45;7.05;;;;;;;;;;5018703;28;20072;-83
2023/09/09 02:27:04;;;;;;;10.15;7.10;;;;;;;;;;5018168;28;20050;-83
2023/09/09 02:29:31;;;;;;;8.65;6.72;;;;;;;;;;5018173;28;20129;-81
2023/09/09 02:31:58;;;;;;;7.97;6.85;;;;;;;;;;5017361;28;20050;-81
2023/09/09 02:34:25;;;;;;;8.32;6.85;;;;;;;;;;5017859;28;20053;-80
2023/09/09 02:37:14;;;;;;;11.32;7.15;;;;;;;;;;5017469;28;20042;-83
2023/09/09 02:39:41;;;;;;;8.20;6.80;;;;;;;;;;5018566;28;20050;-82
2023/09/09 02:42:08;;;;;;;10.07;7.18;;;;;;;;;;5018476;28;20077;-83
2023/09/09 02:44:35;;;;;;;11.68;7.65;;;;;;;;;;5017398;28;20054;-81
2023/09/09 02:47:02;;;;;;;12.82;8.00;;;;;;;;;;5017654;28;20170;-81
2023/09/09 02:49:29;;;;;;;13.02;7.47;;;;;;;;;;5017742;28;20052;-81
2023/09/09 02:51:56;;;;;;;10.88;8.10;;;;;;;;;;5017529;28;20060;-82
2023/09/09 02:54:22;;;;;;;9.45;7.88;;;;;;;;;;5018038;28;20181;-82
2023/09/09 02:56:49;;;;;;;10.57;8.25;;;;;;;;;;5018069;28;20053;-81
2023/09/09 02:59:15;;;;;;;9.90;7.40;;;;;;;;;;5018083;28;20060;-81
2023/09/09 03:01:42;;;;;;;13.48;7.47;;;;;;;;;;5017916;28;20042;-81
2023/09/09 03:04:10;;;;;;;11.43;7.55;;;;;;;;;;5018474;28;20136;-81
2023/09/09 03:06:36;;;;;;;8.18;7.00;;;;;;;;;;5017828;28;20136;-82
2023/09/09 03:09:03;;;;;;;9.32;7.95;;;;;;;;;;5018662;28;20584;-82
2023/09/09 03:11:30;;;;;;;9.02;7.10;;;;;;;;;;5019019;28;20467;-81
2023/09/09 03:13:57;;;;;;;12.02;7.38;;;;;;;;;;5018897;28;20076;-82
2023/09/09 03:16:23;;;;;;;9.57;7.15;;;;;;;;;;5020424;28;20524;-82
2023/09/09 03:18:50;;;;;;;10.63;7.50;;;;;;;;;;5019406;28;20050;-82
2023/09/09 03:21:18;;;;;;;11.20;7.18;;;;;;;;;;5020893;28;20050;-83
2023/09/09 03:23:44;;;;;;;8.38;7.47;;;;;;;;;;5019613;28;20045;-82
2023/09/09 03:26:12;;;;;;;11.25;7.28;;;;;;;;;;5019128;28;20493;-84
2023/09/09 03:28:38;;;;;;;10.27;8.00;;;;;;;;;;5019518;28;20057;-82
2023/09/09 03:31:05;;;;;;;10.55;7.18;;;;;;;;;;5018505;28;20042;-83
2023/09/09 03:33:31;;;;;;;11.38;7.82;;;;;;;;;;5018902;28;20662;-82
2023/09/09 03:35:58;;;;;;;12.13;7.93;;;;;;;;;;5019330;28;20060;-81
2023/09/09 03:38:26;;;;;;;9.02;7.30;;;;;;;;;;5018782;28;20500;-81
2023/09/09 03:40:53;;;;;;;11.25;7.60;;;;;;;;;;5017682;28;20700;-81
2023/09/09 03:43:19;;;;;;;10.07;7.57;;;;;;;;;;5016303;28;20136;-83
2023/09/09 03:45:46;;;;;;;10.35;7.72;;;;;;;;;;5016327;28;20042;-82
2023/09/09 03:48:12;;;;;;;9.82;8.05;;;;;;;;;;5023546;23;20052;-67
2023/09/09 03:50:39;;;;;;;12.88;8.38;;;;;;;;;;5010657;28;20046;-67
2023/09/09 03:53:05;;;;;;;11.60;7.35;;;;;;;;;;5010313;28;20042;-67
2023/09/09 03:55:33;;;;;;;12.07;8.73;;;;;;;;;;5010601;28;20056;-67
2023/09/09 03:58:00;;;;;;;10.93;8.25;;;;;;;;;;5013408;28;20411;-67
2023/09/09 04:00:26;;;;;;;11.30;8.27;;;;;;;;;;5014307;28;20506;-67
2023/09/09 04:02:53;;;;;;;11.55;8.23;;;;;;;;;;5014623;28;20046;-67
2023/09/09 04:05:20;;;;;;;11.23;8.10;;;;;;;;;;5014516;28;20049;-67
2023/09/09 04:07:46;;;;;;;12.13;8.38;;;;;;;;;;5014605;28;20046;-67
2023/09/09 04:10:14;;;;;;;11.90;8.02;;;;;;;;;;5014906;28;20049;-67
2023/09/09 04:12:41;;;;;;;15.38;8.50;;;;;;;;;;5014060;28;20050;-67
2023/09/09 04:15:10;;;;;;;13.45;8.63;;;;;;;;;;5014244;28;20492;-67
2023/09/09 04:17:38;;;;;;;14.65;9.05;;;;;;;;;;5014283;28;20045;-67
2023/09/09 04:20:07;;;;;;;12.52;8.50;;;;;;;;;;5014458;28;20064;-67
2023/09/09 04:22:33;;;;;;;13.27;8.02;;;;;;;;;;5012669;28;20456;-67
2023/09/09 04:25:00;;;;;;;14.00;8.77;;;;;;;;;;5014205;28;20492;-67
2023/09/09 04:27:27;;;;;;;12.60;8.82;;;;;;;;;;5014079;28;20048;-67
2023/09/09 04:29:55;;;;;;;11.40;8.88;;;;;;;;;;5013941;28;20046;-67
2023/09/09 04:32:21;;;;;;;14.70;9.15;;;;;;;;;;5013856;28;20053;-67
2023/09/09 04:34:48;;;;;;;14.07;9.32;;;;;;;;;;5014131;28;20045;-67
2023/09/09 04:37:16;;;;;;;12.27;8.82;;;;;;;;;;5014026;28;20466;-67
2023/09/09 04:39:42;;;;;;;10.45;8.07;;;;;;;;;;5013775;28;20054;-67
2023/09/09 04:42:09;;;;;;;15.98;9.18;;;;;;;;;;5013562;28;20049;-67
2023/09/09 04:44:36;;;;;;;11.88;9.25;;;;;;;;;;5013922;28;20494;-67
2023/09/09 04:47:04;;;;;;;15.15;8.18;;;;;;;;;;5013737;28;20046;-67
2023/09/09 04:49:31;;;;;;;13.77;8.93;;;;;;;;;;5013597;28;20050;-67
2023/09/09 04:51:58;;;;;;;16.67;9.77;;;;;;;;;;5013312;28;20133;-67
2023/09/09 04:54:24;;;;;;;13.23;8.88;;;;;;;;;;5013399;28;20069;-67
2023/09/09 04:56:51;;;;;;;15.68;10.00;;;;;;;;;;5013608;28;20056;-67
2023/09/09 04:59:17;;;;;;;19.63;10.10;;;;;;;;;;5013638;28;20060;-67
2023/09/09 05:01:44;;;;;;;20.67;10.27;;;;;;;;;;5013068;28;20136;-67
2023/09/09 05:04:12;;;;;;;24.77;11.57;;;;;;;;;;5013596;28;20050;-67
2023/09/09 05:06:38;;;;;;;24.95;11.32;;;;;;;;;;5013207;28;20511;-67
2023/09/09 05:09:05;;;;;;;26.08;12.07;;;;;;;;;;5013132;28;20470;-67
2023/09/09 05:11:32;;;;;;;23.08;11.60;;;;;;;;;;5013334;28;20041;-67
2023/09/09 05:13:58;;;;;;;22.70;11.43;;;;;;;;;;5013566;28;20638;-67
2023/09/09 05:16:25;;;;;;;21.38;10.98;;;;;;;;;;5013181;28;20050;-67
2023/09/09 05:18:51;;;;;;;22.05;11.23;;;;;;;;;;5013530;28;20046;-69
2023/09/09 05:21:19;;;;;;;17.00;10.85;;;;;;;;;;5013299;28;20149;-69
2023/09/09 05:23:46;;;;;;;23.17;10.48;;;;;;;;;;5013521;28;20052;-67
2023/09/09 05:26:12;;;;;;;16.45;9.57;;;;;;;;;;5013278;28;20056;-67
2023/09/09 05:28:39;;;;;;;20.50;11.25;;;;;;;;;;5013082;28;20050;-67
2023/09/09 05:31:06;;;;;;;19.60;10.32;;;;;;;;;;5013033;28;20042;-67
2023/09/09 05:33:32;;;;;;;18.92;10.70;;;;;;;;;;5013235;28;20522;-66
2023/09/09 05:35:59;;;;;;;20.35;10.63;;;;;;;;;;5012913;28;20050;-67
2023/09/09 05:38:29;;;;;;;16.38;10.65;;;;;;;;;;5013209;28;20046;-67
2023/09/09 05:40:56;;;;;;;23.95;10.07;;;;;;;;;;5012840;28;20048;-67
2023/09/09 05:43:22;;;;;;;14.82;10.10;;;;;;;;;;5012873;28;20520;-67
2023/09/09 05:45:49;;;;;;;19.30;10.55;;;;;;;;;;5012970;28;20447;-67
2023/09/09 05:48:15;;;;;;;15.18;10.00;;;;;;;;;;5012549;28;20045;-67
2023/09/09 05:50:43;;;;;;;15.90;9.95;;;;;;;;;;5012314;28;20393;-67
2023/09/09 05:53:09;;;;;;;17.65;10.38;;;;;;;;;;5011932;28;20050;-67
2023/09/09 05:55:37;;;;;;;16.35;10.75;;;;;;;;;;5012672;28;20435;-67
2023/09/09 05:58:04;;;;;;;18.45;10.82;;;;;;;;;;5012374;28;20042;-67
2023/09/09 06:00:31;;;;;;;23.50;11.55;;;;;;;;;;5012439;28;20045;-68
2023/09/09 06:02:57;;;;;;;18.05;10.50;;;;;;;;;;5012088;28;20054;-68
2023/09/09 06:05:24;;;;;;;20.25;10.65;;;;;;;;;;5012061;28;20313;-68
2023/09/09 06:07:50;;;;;;;22.52;10.80;;;;;;;;;;5012255;28;20046;-68
2023/09/09 06:10:17;;;;;;;19.52;11.25;;;;;;;;;;5012249;28;20049;-68
2023/09/09 06:12:45;;;;;;;19.02;11.13;;;;;;;;;;5011714;28;20050;-67
2023/09/09 06:15:12;;;;;;;21.25;12.07;;;;;;;;;;5012049;28;20111;-67
2023/09/09 06:17:39;;;;;;;17.75;11.52;;;;;;;;;;5011982;28;20128;-68
2023/09/09 06:20:07;;;;;;;17.52;10.20;;;;;;;;;;5011501;28;20077;-67
2023/09/09 06:22:34;;;;;;;18.48;11.30;;;;;;;;;;5011365;28;20050;-67
2023/09/09 06:25:01;;;;;;;15.32;9.85;;;;;;;;;;5011984;28;20081;-68
2023/09/09 06:27:28;;;;;;;14.27;9.88;;;;;;;;;;5011710;28;20046;-68
2023/09/09 06:29:56;;;;;;;13.98;9.82;;;;;;;;;;5011777;28;20407;-67
2023/09/09 06:32:22;;;;;;;14.60;10.38;;;;;;;;;;5011325;28;20042;-67
2023/09/09 06:34:49;;;;;;;19.80;10.68;;;;;;;;;;5012103;28;20052;-67
2023/09/09 06:37:16;;;;;;;14.23;9.32;;;;;;;;;;5011742;28;20133;-67
2023/09/09 06:39:42;;;;;;;15.80;9.90;;;;;;;;;;5011845;28;20498;-68
2023/09/09 06:42:09;;;;;;;12.90;9.20;;;;;;;;;;5011247;28;20056;-68
2023/09/09 06:44:35;;;;;;;14.88;9.38;;;;;;;;;;5011054;28;20049;-68
2023/09/09 06:47:04;;;;;;;12.57;8.90;;;;;;;;;;5011580;28;20052;-68
2023/09/09 06:49:30;;;;;;;14.43;9.40;;;;;;;;;;5011376;28;20052;-67
2023/09/09 06:51:57;;;;;;;11.88;8.95;;;;;;;;;;5010971;28;20132;-67
2023/09/09 06:54:23;;;;;;;13.45;9.10;;;;;;;;;;5011578;28;20053;-67
2023/09/09 06:56:50;;;;;;;9.43;8.30;;;;;;;;;;5011889;28;20048;-67
2023/09/09 06:59:16;;;;;;;8.95;7.78;;;;;;;;;;5011140;28;20052;-67
2023/09/09 07:01:43;;;;;;;9.18;8.13;;;;;;;;;;5011148;28;20056;-67
2023/09/09 07:04:11;;;;;;;9.35;8.05;;;;;;;;;;5011698;28;20048;-67
2023/09/09 07:06:37;;;;;;;9.25;7.78;;;;;;;;;;5011280;28;20134;-67
2023/09/09 07:09:04;;;;;;;8.98;7.20;;;;;;;;;;5011266;28;20459;-67
2023/09/09 07:11:30;;;;;;;9.55;7.50;;;;;;;;;;5010999;28;20488;-67
2023/09/09 07:13:57;;;;;;;8.80;7.63;;;;;;;;;;5011162;28;20141;-67
2023/09/09 07:16:24;;;;;;;9.27;7.95;;;;;;;;;;5011573;28;20049;-67
2023/09/09 07:18:51;;;;;;;9.40;7.57;;;;;;;;;;5010798;28;20046;-67
2023/09/09 07:21:18;;;;;;;8.70;7.00;;;;;;;;;;5010727;28;20042;-67
2023/09/09 07:23:45;;;;;;;9.32;7.93;;;;;;;;;;5010882;28;20483;-67
2023/09/09 07:26:12;;;;;;;9.82;8.15;;;;;;;;;;5010669;28;20415;-68
2023/09/09 07:28:38;;;;;;;9.15;7.97;;;;;;;;;;5010771;28;20417;-69
2023/09/09 07:31:05;;;;;;;9.48;8.10;;;;;;;;;;5010351;28;20480;-68
2023/09/09 07:33:32;;;;;;;8.98;7.88;;;;;;;;;;5010377;28;20725;-68
2023/09/09 07:35:58;;;;;;;9.30;8.30;;;;;;;;;;5010896;28;20423;-68
2023/09/09 07:38:26;;;;;;;10.50;8.27;;;;;;;;;;5010845;28;20042;-68
2023/09/09 07:40:56;;;;;;;9.57;8.50;;;;;;;;;;5010398;28;20042;-68
2023/09/09 07:43:23;;;;;;;10.48;8.60;;;;;;;;;;5010096;28;20042;-67
2023/09/09 07:45:51;;;;;;;11.20;8.77;;;;;;;;;;5010862;28;20412;-68
2023/09/09 07:48:17;;;;;;;11.20;9.45;;;;;;;;;;5010669;28;20096;-69
2023/09/09 07:50:50;;;;;;;13.35;10.02;;;;;;;;;;5010713;28;20049;-68
2023/09/09 07:53:17;;;;;;;12.27;9.93;;;;;;;;;;5010349;28;20046;-69
2023/09/09 07:55:47;;;;;;;10.30;9.13;;;;;;;;;;5010886;28;20088;-68
2023/09/09 07:58:14;;;;;;;11.27;9.50;;;;;;;;;;5011093;28;20141;-69
2023/09/09 08:00:41;;;;;;;15.30;10.27;;;;;;;;;;5010487;28;20050;-69
2023/09/09 08:03:08;;;;;;;12.15;9.68;;;;;;;;;;5010145;28;20046;-69
2023/09/09 08:05:34;;;;;;;13.38;9.30;;;;;;;;;;5010703;28;20129;-68
2023/09/09 08:08:01;;;;;;;11.15;9.32;;;;;;;;;;5010442;28;20411;-68
2023/09/09 08:10:27;;;;;;;13.68;9.57;;;;;;;;;;5010540;28;20478;-68
2023/09/09 08:12:55;;;;;;;11.05;9.55;;;;;;;;;;5010348;28;20391;-68
2023/09/09 08:15:22;;;;;;;10.93;9.55;;;;;;;;;;5010767;28;20046;-68
2023/09/09 08:17:49;;;;;;;13.85;10.35;;;;;;;;;;5010557;28;20046;-68
2023/09/09 08:20:15;;;;;;;13.48;9.40;;;;;;;;;;5010395;28;20050;-68
2023/09/09 08:22:42;;;;;;;11.88;9.60;;;;;;;;;;5009997;28;20068;-68
2023/09/09 08:25:09;;;;;;;12.80;9.88;;;;;;;;;;5010679;28;20376;-68
2023/09/09 08:27:35;;;;;;;11.20;9.73;;;;;;;;;;5010169;28;20057;-68
2023/09/09 08:30:04;;;;;;;10.68;8.95;;;;;;;;;;5010369;28;20046;-71
2023/09/09 08:32:30;;;;;;;11.63;9.32;;;;;;;;;;5010031;28;20227;-71
2023/09/09 08:34:58;;;;;;;11.30;9.15;;;;;;;;;;5010600;28;20072;-71
2023/09/09 08:37:25;;;;;;;10.82;9.30;;;;;;;;;;5010616;28;20041;-70
2023/09/09 08:39:54;;;;;;;10.75;8.90;;;;;;;;;;5011004;28;20052;-68
2023/09/09 08:42:31;;;;;;;10.23;8.80;;;;;;;;;;5010511;28;20048;-70
2023/09/09 08:45:06;;;;;;;9.43;8.15;;;;;;;;;;5014046;28;20071;-72
2023/09/09 08:47:36;;;;;;;13.23;8.23;;;;;;;;;;5014154;28;20053;-69
2023/09/09 08:50:04;;;;;;;8.98;7.43;;;;;;;;;;5013848;28;20052;-68
2023/09/09 08:52:31;;;;;;;9.15;8.05;;;;;;;;;;5013772;28;20056;-69
2023/09/09 08:54:59;;;;;;;12.82;8.25;;;;;;;;;;5013765;28;20046;-71
2023/09/09 08:57:28;;;;;;;8.85;7.80;;;;;;;;;;5013918;28;20479;-70
2023/09/09 08:59:56;;;;;;;12.63;7.93;;;;;;;;;;5013628;28;20076;-69
2023/09/09 09:02:24;;;;;;;10.20;7.70;;;;;;;;;;5012914;28;20050;-69
2023/09/09 09:04:53;;;;;;;11.93;8.13;;;;;;;;;;5013543;28;20311;-69
2023/09/09 09:07:21;;;;;;;10.35;8.05;;;;;;;;;;5013390;28;20086;-69
2023/09/09 09:09:48;;;;;;;10.43;7.78;;;;;;;;;;5013381;28;20076;-70
2023/09/09 09:12:15;;;;;;;11.70;7.65;;;;;;;;;;5012858;28;20076;-70
2023/09/09 09:14:46;;;;;;;9.82;7.53;;;;;;;;;;5013223;28;20061;-70
2023/09/09 09:17:15;;;;;;;10.05;7.60;;;;;;;;;;5013506;28;20393;-70
2023/09/09 09:19:43;;;;;;;9.27;7.57;;;;;;;;;;5013224;28;20046;-69
2023/09/09 09:22:12;;;;;;;10.10;6.82;;;;;;;;;;5015496;28;20092;-69
2023/09/09 09:24:42;;;;;;;7.97;6.85;;;;;;;;;;5013099;28;20054;-69
2023/09/09 09:27:10;;;;;;;10.00;6.75;;;;;;;;;;5012813;28;20133;-70
2023/09/09 09:29:40;;;;;;;7.93;6.97;;;;;;;;;;5012796;28;20061;-70
2023/09/09 09:32:08;;;;;;;7.93;6.85;;;;;;;;;;5012433;28;20054;-69
2023/09/09 09:34:35;;;;;;;8.05;6.80;;;;;;;;;;5012819;28;20504;-69
2023/09/09 09:37:09;;;;;;;8.63;7.05;;;;;;;;;;5012784;28;20556;-68
2023/09/09 09:39:36;;;;;;;11.40;7.20;;;;;;;;;;5012820;28;20425;-69
2023/09/09 09:42:03;;;;;;;9.70;6.90;;;;;;;;;;5012169;28;20618;-69
2023/09/09 09:44:29;;;;;;;8.75;6.88;;;;;;;;;;5012932;28;20099;-70
2023/09/09 09:47:01;;;;;;;10.32;6.95;;;;;;;;;;5012824;28;20153;-68
2023/09/09 09:49:35;;;;;;;8.48;6.88;;;;;;;;;;5012656;28;20076;-69
2023/09/09 09:52:02;;;;;;;7.85;6.30;;;;;;;;;;5012298;28;20048;-70
2023/09/09 09:54:31;;;;;;;8.05;6.85;;;;;;;;;;5011564;28;20081;-71
2023/09/09 09:57:00;;;;;;;8.45;7.10;;;;;;;;;;5012682;28;20097;-70
2023/09/09 09:59:29;;;;;;;9.45;7.20;;;;;;;;;;5012364;28;20238;-68
2023/09/09 10:01:56;;;;;;;11.77;6.88;;;;;;;;;;5012139;28;20048;-68
2023/09/09 10:04:25;;;;;;;9.10;7.15;;;;;;;;;;5012546;28;20045;-71
2023/09/09 10:06:55;;;;;;;10.95;6.85;;;;;;;;;;5012545;28;20415;-69
2023/09/09 10:09:29;;;;;;;12.60;6.78;;;;;;;;;;5012717;28;20080;-69
2023/09/09 10:12:03;;;;;;;8.43;6.55;;;;;;;;;;5012707;28;20056;-69
2023/09/09 10:14:31;;;;;;;8.10;6.15;;;;;;;;;;5012503;28;20099;-69
2023/09/09 10:16:58;;;;;;;8.48;6.53;;;;;;;;;;5013217;28;20092;-71
2023/09/09 10:19:27;;;;;;;7.57;6.50;;;;;;;;;;5012839;28;20096;-70
2023/09/09 10:21:56;;;;;;;8.38;7.00;;;;;;;;;;5012552;28;20050;-70
2023/09/09 10:24:22;;;;;;;11.82;6.85;;;;;;;;;;5013045;28;20050;-69
2023/09/09 10:26:50;;;;;;;8.15;6.57;;;;;;;;;;5011883;28;20046;-69
2023/09/09 10:29:20;;;;;;;8.68;6.63;;;;;;;;;;5012030;28;20511;-68
2023/09/09 10:31:49;;;;;;;12.75;6.93;;;;;;;;;;5011949;28;20046;-70
2023/09/09 10:34:16;;;;;;;9.88;6.30;;;;;;;;;;5011640;28;20341;-70
2023/09/09 10:36:45;;;;;;;9.95;6.60;;;;;;;;;;5011996;28;20049;-70
2023/09/09 10:39:13;;;;;;;8.73;6.20;;;;;;;;;;5011923;28;20046;-70
2023/09/09 10:41:41;;;;;;;7.95;6.07;;;;;;;;;;5011432;28;20068;-72
2023/09/09 10:44:09;;;;;;;10.05;5.88;;;;;;;;;;5011836;28;20054;-70
2023/09/09 10:46:37;;;;;;;6.70;5.50;;;;;;;;;;5011060;28;20086;-70
2023/09/09 10:49:04;;;;;;;7.57;6.18;;;;;;;;;;5011079;28;20046;-68
2023/09/09 10:51:48;;;;;;;9.05;6.32;;;;;;;;;;5010836;28;20050;-69
2023/09/09 10:54:16;;;;;;;8.07;6.18;;;;;;;;;;5011063;28;20046;-70
2023/09/09 10:56:46;;;;;;;8.02;5.78;;;;;;;;;;5011320;28;20056;-70
2023/09/09 10:59:16;;;;;;;6.72;6.03;;;;;;;;;;5011113;28;20103;-69
2023/09/09 11:01:44;;;;;;;7.80;5.95;;;;;;;;;;5010908;28;20050;-72
2023/09/09 11:04:19;;;;;;;7.22;5.88;;;;;;;;;;5011682;28;20046;-69
2023/09/09 11:06:59;;;;;;;8.25;5.72;;;;;;;;;;5011023;28;20046;-69
2023/09/09 11:09:29;;;;;;;6.88;5.40;;;;;;;;;;5010908;28;20049;-70
2023/09/09 11:11:56;;;;;;;5.95;5.35;;;;;;;;;;5011119;28;20050;-71
2023/09/09 11:14:28;;;;;;;5.90;5.30;;;;;;;;;;5011258;28;20042;-71
2023/09/09 11:16:56;;;;;;;7.03;5.47;;;;;;;;;;5011170;28;20500;-70
2023/09/09 11:19:24;;;;;;;5.35;4.57;;;;;;;;;;5010860;28;20052;-71
2023/09/09 11:21:52;;;;;;;6.78;5.05;;;;;;;;;;5010612;28;20056;-72
2023/09/09 11:24:19;;;;;;;6.70;4.35;;;;;;;;;;5011278;28;20041;-71
2023/09/09 11:26:47;;;;;;;7.57;4.95;;;;;;;;;;5010942;28;20133;-69
2023/09/09 11:29:14;;;;;;;5.25;4.55;;;;;;;;;;5011458;28;20042;-69
2023/09/09 11:31:41;;;;;;;5.47;4.45;;;;;;;;;;5011250;28;20046;-69
2023/09/09 11:34:09;;;;;;;10.45;4.32;;;;;;;;;;5011702;28;20045;-70
2023/09/09 11:36:35;;;;;;;6.95;4.47;;;;;;;;;;5011657;28;20467;-70
2023/09/09 11:39:03;;;;;;;5.05;4.55;;;;;;;;;;5011885;28;20407;-70
2023/09/09 11:41:31;;;;;;;13.68;4.80;;;;;;;;;;5011625;28;20042;-70
2023/09/09 11:44:00;;;;;;;5.50;4.13;;;;;;;;;;5011601;28;20129;-70
2023/09/09 11:46:27;;;;;;;5.72;4.07;;;;;;;;;;5011426;28;20056;-71
2023/09/09 11:48:54;;;;;;;5.50;4.68;;;;;;;;;;5010998;28;20049;-70
2023/09/09 11:51:23;;;;;;;6.32;4.60;;;;;;;;;;5011076;28;20125;-71
2023/09/09 11:53:50;;;;;;;7.05;4.38;;;;;;;;;;5011264;28;20480;-71
2023/09/09 11:56:19;;;;;;;5.65;4.40;;;;;;;;;;5011375;28;20525;-71
2023/09/09 11:58:47;;;;;;;6.32;4.40;;;;;;;;;;5010817;28;20053;-70
2023/09/09 12:01:13;;;;;;;4.78;3.97;;;;;;;;;;5010783;28;20389;-70
2023/09/09 12:03:40;;;;;;;9.70;4.65;;;;;;;;;;5011471;28;20096;-71
2023/09/09 12:06:08;;;;;;;9.23;4.72;;;;;;;;;;5011185;28;20042;-71
2023/09/09 12:08:36;;;;;;;10.25;4.88;;;;;;;;;;5011196;28;20052;-71
2023/09/09 12:11:06;;;;;;;7.45;4.68;;;;;;;;;;5010867;28;20233;-71
2023/09/09 12:13:34;;;;;;;7.18;4.45;;;;;;;;;;5011068;28;20052;-70
2023/09/09 12:16:01;;;;;;;7.88;4.78;;;;;;;;;;5010961;28;20423;-71
2023/09/09 12:18:27;;;;;;;8.00;4.45;;;;;;;;;;5012989;28;20060;-71
2023/09/09 12:21:02;;;;;;;9.50;4.63;;;;;;;;;;5014738;28;20073;-71
2023/09/09 12:23:29;;;;;;;8.43;4.68;;;;;;;;;;5014943;28;20072;-71
2023/09/09 12:25:57;;;;;;;8.02;5.03;;;;;;;;;;5014903;28;20068;-71
2023/09/09 12:28:23;;;;;;;9.25;4.70;;;;;;;;;;5014692;28;20048;-71
2023/09/09 12:30:51;;;;;;;8.48;4.40;;;;;;;;;;5014806;28;20084;-71
2023/09/09 12:33:18;;;;;;;8.50;4.45;;;;;;;;;;5014599;28;20492;-70
2023/09/09 12:35:46;;;;;;;9.93;4.43;;;;;;;;;;5014667;28;20138;-71
2023/09/09 12:38:14;;;;;;;8.38;4.85;;;;;;;;;;5014271;28;20050;-71
2023/09/09 12:40:51;;;;;;;8.88;4.55;;;;;;;;;;5014163;28;20077;-70
2023/09/09 12:43:25;;;;;;;8.98;4.20;;;;;;;;;;5014581;28;20404;-71
2023/09/09 12:45:52;;;;;;;9.45;4.32;;;;;;;;;;5014528;28;20133;-70
2023/09/09 12:48:20;;;;;;;9.30;4.43;;;;;;;;;;5013722;28;20046;-70
2023/09/09 12:50:47;;;;;;;11.25;4.38;;;;;;;;;;5014405;28;20046;-71
2023/09/09 12:53:14;;;;;;;16.17;4.78;;;;;;;;;;5014200;28;20484;-71
2023/09/09 12:55:41;;;;;;;12.90;4.13;;;;;;;;;;5014334;28;20056;-71
2023/09/09 12:58:08;;;;;;;11.90;4.28;;;;;;;;;;5014298;28;20049;-71
2023/09/09 13:00:36;;;;;;;13.80;4.38;;;;;;;;;;5014243;28;20506;-71
2023/09/09 13:03:03;;;;;;;10.32;4.10;;;;;;;;;;5013832;28;20042;-71
2023/09/09 13:05:30;;;;;;;11.13;4.15;;;;;;;;;;5014125;28;20104;-71
2023/09/09 13:07:57;;;;;;;14.88;4.32;;;;;;;;;;5014541;28;20509;-71
2023/09/09 13:10:23;;;;;;;10.73;3.50;;;;;;;;;;5013827;28;20042;-71
2023/09/09 13:12:50;;;;;;;12.57;3.83;;;;;;;;;;5014107;28;20474;-71
2023/09/09 13:15:17;;;;;;;10.65;4.22;;;;;;;;;;5013907;28;20058;-71
2023/09/09 13:17:45;;;;;;;10.13;4.45;;;;;;;;;;5013729;28;20053;-71
2023/09/09 13:20:11;;;;;;;12.68;4.25;;;;;;;;;;5013793;28;20418;-70
2023/09/09 13:22:38;;;;;;;12.80;3.80;;;;;;;;;;5013741;28;20072;-68
2023/09/09 13:25:07;;;;;;;9.90;3.38;;;;;;;;;;5013643;28;20408;-69
2023/09/09 13:27:37;;;;;;;8.95;4.05;;;;;;;;;;5013567;28;20050;-69
2023/09/09 13:30:04;;;;;;;6.60;3.78;;;;;;;;;;5013151;28;20129;-69
2023/09/09 13:32:31;;;;;;;8.82;3.38;;;;;;;;;;5013643;28;20046;-69
2023/09/09 13:34:59;;;;;;;9.50;3.97;;;;;;;;;;5013460;28;20068;-69
2023/09/09 13:37:25;;;;;;;7.90;3.28;;;;;;;;;;5013388;28;20045;-69
2023/09/09 13:39:52;;;;;;;9.68;3.35;;;;;;;;;;5013542;28;20049;-69
2023/09/09 13:42:18;;;;;;;7.55;3.50;;;;;;;;;;5013184;28;20393;-69
2023/09/09 13:44:45;;;;;;;8.48;3.83;;;;;;;;;;5013341;28;20197;-69
2023/09/09 13:47:11;;;;;;;9.88;3.17;;;;;;;;;;5013189;28;20046;-69
2023/09/09 13:49:38;;;;;;;7.68;3.30;;;;;;;;;;5012791;28;20268;-69
2023/09/09 13:52:06;;;;;;;7.25;3.30;;;;;;;;;;5013093;28;20041;-69
2023/09/09 13:54:33;;;;;;;7.60;3.53;;;;;;;;;;5013163;28;20042;-69
2023/09/09 13:57:01;;;;;;;9.00;3.55;;;;;;;;;;5012848;28;20412;-69
2023/09/09 13:59:28;;;;;;;8.95;3.33;;;;;;;;;;5012819;28;20526;-69
2023/09/09 14:01:54;;;;;;;8.45;3.60;;;;;;;;;;5012846;28;20042;-69
2023/09/09 14:04:21;;;;;;;10.65;3.72;;;;;;;;;;5012875;28;20141;-69
2023/09/09 14:06:47;;;;;;;9.00;3.22;;;;;;;;;;5012923;28;20080;-69
2023/09/09 14:09:15;;;;;;;6.65;3.35;;;;;;;;;;5012650;28;20072;-69
2023/09/09 14:11:42;;;;;;;9.60;3.60;;;;;;;;;;5012724;28;20052;-69
2023/09/09 14:14:08;;;;;;;10.07;3.55;;;;;;;;;;5012814;28;20052;-69
2023/09/09 14:16:35;;;;;;;13.90;3.70;;;;;;;;;;5012482;28;20042;-69
2023/09/09 14:19:02;;;;;;;7.38;3.92;;;;;;;;;;5012565;28;20072;-70
2023/09/09 14:21:28;;;;;;;8.80;4.00;;;;;;;;;;5012283;28;20050;-69
2023/09/09 14:23:55;;;;;;;9.25;3.88;;;;;;;;;;5012424;28;20129;-69
2023/09/09 14:26:23;;;;;;;7.55;3.53;;;;;;;;;;5012225;28;20156;-69
2023/09/09 14:28:49;;;;;;;6.80;3.25;;;;;;;;;;5013182;28;20056;-69
2023/09/09 14:31:16;;;;;;;8.30;3.50;;;;;;;;;;5012223;28;20129;-68
2023/09/09 14:33:42;;;;;;;5.03;3.20;;;;;;;;;;5011962;28;20418;-67
2023/09/09 14:36:09;;;;;;;11.30;3.63;;;;;;;;;;5012455;28;20385;-67